createdAt,value
2023-11-10T00:00:25.612Z,0.90
2023-11-10T00:02:52.400Z,0.70
2023-11-10T00:05:19.144Z,1.67
2023-11-10T00:07:45.882Z,1.23
2023-11-10T00:10:12.626Z,0.65
2023-11-10T00:12:39.236Z,0.65
2023-11-10T00:15:06.302Z,0.73
2023-11-10T00:17:32.867Z,0.95
2023-11-10T00:19:59.450Z,1.00
2023-11-10T00:22:26.039Z,0.52
2023-11-10T00:24:52.622Z,0.73
2023-11-10T00:27:19.258Z,0.85
2023-11-10T00:29:46.087Z,0.77
2023-11-10T00:32:13.141Z,0.80
2023-11-10T00:34:40.291Z,0.80
2023-11-10T00:37:06.925Z,0.82
2023-11-10T00:39:33.562Z,0.82
2023-11-10T00:42:00.147Z,0.90
2023-11-10T00:44:26.920Z,0.85
2023-11-10T00:46:53.527Z,0.70
2023-11-10T00:49:20.095Z,0.82
2023-11-10T00:51:46.746Z,0.60
2023-11-10T00:54:13.366Z,0.85
2023-11-10T00:56:39.980Z,0.47
2023-11-10T00:59:06.551Z,0.45
2023-11-10T01:01:35.082Z,0.30
2023-11-10T01:04:01.776Z,0.30
2023-11-10T01:06:28.757Z,0.60
2023-11-10T01:08:55.646Z,0.28
2023-11-10T01:11:22.236Z,0.10
2023-11-10T01:13:48.796Z,0.20
2023-11-10T01:16:15.479Z,0.40
2023-11-10T01:18:42.389Z,0.25
2023-11-10T01:21:09.149Z,0.13
2023-11-10T01:23:35.857Z,0.20
2023-11-10T01:26:02.480Z,0.10
2023-11-10T01:28:29.041Z,0.20
2023-11-10T01:30:55.688Z,0.25
2023-11-10T01:33:22.541Z,0.05
2023-11-10T01:35:49.250Z,0.20
2023-11-10T01:38:15.896Z,0.17
2023-11-10T01:40:43.085Z,0.20
2023-11-10T01:43:10.672Z,0.10
2023-11-10T01:45:37.325Z,0.10
2023-11-10T01:48:04.957Z,0.25
2023-11-10T01:50:32.168Z,0.10
2023-11-10T01:52:59.329Z,0.20
2023-11-10T01:55:26.443Z,0.13
2023-11-10T01:57:53.414Z,0.10
2023-11-10T02:00:20.222Z,0.20
2023-11-10T02:02:46.989Z,0.30
2023-11-10T02:05:13.607Z,0.40
2023-11-10T02:07:41.089Z,0.30
2023-11-10T02:10:07.858Z,0.40
2023-11-10T02:12:34.482Z,0.63
2023-11-10T02:15:01.103Z,0.52
2023-11-10T02:17:27.688Z,0.35
2023-11-10T02:19:54.294Z,0.60
2023-11-10T02:22:20.875Z,0.80
2023-11-10T02:24:47.543Z,1.00
2023-11-10T02:27:14.154Z,0.90
2023-11-10T02:29:41.570Z,1.08
2023-11-10T02:32:08.139Z,0.85
2023-11-10T02:34:34.767Z,0.75
2023-11-10T02:37:01.348Z,1.20
2023-11-10T02:39:27.990Z,0.93
2023-11-10T02:41:54.580Z,1.40
2023-11-10T02:44:21.483Z,1.38
2023-11-10T02:46:48.342Z,1.33
2023-11-10T02:49:14.953Z,1.10
2023-11-10T02:51:41.516Z,1.40
2023-11-10T02:54:08.098Z,1.27
2023-11-10T02:56:34.708Z,1.58
2023-11-10T02:59:01.306Z,1.70
2023-11-10T03:01:28.079Z,1.27
2023-11-10T03:03:54.816Z,1.35
2023-11-10T03:06:21.486Z,1.67
2023-11-10T03:08:48.090Z,1.48
2023-11-10T03:11:14.701Z,1.73
2023-11-10T03:13:42.191Z,1.42
2023-11-10T03:16:08.863Z,1.85
2023-11-10T03:18:35.527Z,1.45
2023-11-10T03:21:02.220Z,1.75
2023-11-10T03:23:28.862Z,1.58
2023-11-10T03:25:55.481Z,1.70
2023-11-10T03:28:22.066Z,1.50
2023-11-10T03:30:48.680Z,1.77
2023-11-10T03:33:15.290Z,2.03
2023-11-10T03:35:41.892Z,1.70
2023-11-10T03:38:08.509Z,2.10
2023-11-10T03:40:35.109Z,1.98
2023-11-10T03:43:01.681Z,2.00
2023-11-10T03:45:28.275Z,2.20
2023-11-10T03:47:54.921Z,2.10
2023-11-10T03:50:21.524Z,2.38
2023-11-10T03:52:48.107Z,2.55
2023-11-10T03:55:14.663Z,2.38
2023-11-10T03:57:41.274Z,2.67
2023-11-10T04:00:08.468Z,3.00
2023-11-10T04:02:35.260Z,2.72
2023-11-10T04:05:01.844Z,3.05
2023-11-10T04:07:28.506Z,2.60
2023-11-10T04:09:55.176Z,2.58
2023-11-10T04:12:21.801Z,2.90
2023-11-10T04:14:48.417Z,3.17
2023-11-10T04:17:15.042Z,2.85
2023-11-10T04:19:41.595Z,2.63
2023-11-10T04:22:08.164Z,3.38
2023-11-10T04:24:34.965Z,2.85
2023-11-10T04:27:01.541Z,2.67
2023-11-10T04:29:28.158Z,2.67
2023-11-10T04:31:54.787Z,2.70
2023-11-10T04:34:21.383Z,2.97
2023-11-10T04:36:48.042Z,2.90
2023-11-10T04:39:14.789Z,2.33
2023-11-10T04:41:41.393Z,2.42
2023-11-10T04:44:07.965Z,2.53
2023-11-10T04:46:34.572Z,2.65
2023-11-10T04:49:01.149Z,2.88
2023-11-10T04:51:30.841Z,2.67
2023-11-10T04:53:57.427Z,2.33
2023-11-10T04:56:24.024Z,3.22
2023-11-10T04:58:50.624Z,2.25
2023-11-10T05:01:17.203Z,2.70
2023-11-10T05:03:43.972Z,2.75
2023-11-10T05:06:10.592Z,2.78
2023-11-10T05:08:37.233Z,2.10
2023-11-10T05:11:03.852Z,2.55
2023-11-10T05:13:30.415Z,2.42
2023-11-10T05:15:57.063Z,2.80
2023-11-10T05:20:53.197Z,2.22
2023-11-10T05:23:19.813Z,2.65
2023-11-10T05:25:46.507Z,2.30
2023-11-10T05:28:13.092Z,2.28
2023-11-10T05:30:39.693Z,2.28
2023-11-10T05:33:08.216Z,2.28
2023-11-10T05:35:35.034Z,2.03
2023-11-10T05:38:01.601Z,2.20
2023-11-10T05:40:28.260Z,2.05
2023-11-10T05:42:54.892Z,2.38
2023-11-10T05:45:21.511Z,2.03
2023-11-10T05:47:48.170Z,2.08
2023-11-10T05:50:14.786Z,1.90
2023-11-10T05:52:41.350Z,2.10
2023-11-10T05:55:08.180Z,2.25
2023-11-10T05:57:34.853Z,2.95
2023-11-10T06:00:01.452Z,1.95
2023-11-10T06:02:28.000Z,1.40
2023-11-10T06:04:54.752Z,2.03
2023-11-10T06:07:21.374Z,1.75
2023-11-10T06:09:48.062Z,1.77
2023-11-10T06:12:14.756Z,2.25
2023-11-10T06:14:41.352Z,1.40
2023-11-10T06:17:07.861Z,1.63
2023-11-10T06:19:34.435Z,1.67
2023-11-10T06:22:00.981Z,1.35
2023-11-10T06:24:27.597Z,1.38
2023-11-10T06:26:54.269Z,1.30
2023-11-10T06:29:20.836Z,1.25
2023-11-10T06:31:47.688Z,1.63
2023-11-10T06:34:14.622Z,1.45
2023-11-10T06:36:41.216Z,1.27
2023-11-10T06:39:07.729Z,1.30
2023-11-10T06:41:34.353Z,1.30
2023-11-10T06:44:00.948Z,1.20
2023-11-10T06:46:27.785Z,1.45
2023-11-10T06:48:54.692Z,1.58
2023-11-10T06:51:21.620Z,1.05
2023-11-10T06:53:48.384Z,1.10
2023-11-10T06:56:15.403Z,1.02
2023-11-10T06:58:41.974Z,1.13
2023-11-10T07:01:09.808Z,1.13
2023-11-10T07:03:36.551Z,0.90
2023-11-10T07:06:03.313Z,0.98
2023-11-10T07:08:29.921Z,1.00
2023-11-10T07:10:56.537Z,1.27
2023-11-10T07:13:23.116Z,0.70
2023-11-10T07:15:49.827Z,0.88
2023-11-10T07:18:16.656Z,0.82
2023-11-10T07:20:43.304Z,0.95
2023-11-10T07:23:09.905Z,0.93
2023-11-10T07:25:36.606Z,0.75
2023-11-10T07:28:03.457Z,0.63
2023-11-10T07:30:30.156Z,0.98
2023-11-10T07:32:56.895Z,0.68
2023-11-10T07:35:23.509Z,0.73
2023-11-10T07:37:50.091Z,0.60
2023-11-10T07:40:17.034Z,0.50
2023-11-10T07:42:44.206Z,0.70
2023-11-10T07:45:11.509Z,0.70
2023-11-10T07:47:38.127Z,0.60
2023-11-10T07:50:05.313Z,0.60
2023-11-10T07:52:31.860Z,0.50
2023-11-10T07:54:58.879Z,0.60
2023-11-10T07:57:28.319Z,0.50
2023-11-10T07:59:54.992Z,0.55
2023-11-10T08:02:21.518Z,0.50
2023-11-10T08:04:48.143Z,0.50
2023-11-10T08:07:14.761Z,0.40
2023-11-10T08:09:41.354Z,0.50
2023-11-10T08:12:08.181Z,0.60
2023-11-10T08:14:34.831Z,0.32
2023-11-10T08:17:01.437Z,0.43
2023-11-10T08:19:28.029Z,0.75
2023-11-10T08:21:55.336Z,0.68
2023-11-10T08:24:22.889Z,0.40
2023-11-10T08:26:49.465Z,0.43
2023-11-10T08:29:16.023Z,0.50
2023-11-10T08:31:42.646Z,0.70
2023-11-10T08:34:09.402Z,0.40
2023-11-10T08:36:36.142Z,0.50
2023-11-10T08:39:02.781Z,0.73
2023-11-10T08:41:29.393Z,0.70
2023-11-10T08:43:55.976Z,0.35
2023-11-10T08:46:22.588Z,0.43
2023-11-10T08:48:49.289Z,0.50
2023-11-10T08:51:15.903Z,0.60
2023-11-10T08:53:45.231Z,0.82
2023-11-10T08:56:12.765Z,1.10
2023-11-10T08:58:39.370Z,0.55
2023-11-10T09:01:06.033Z,0.57
2023-11-10T09:03:32.724Z,0.93
2023-11-10T09:05:59.428Z,0.55
2023-11-10T09:08:26.029Z,0.55
2023-11-10T09:10:52.574Z,0.70
2023-11-10T09:13:19.254Z,0.93
2023-11-10T09:15:53.530Z,0.45
2023-11-10T09:18:26.002Z,0.70
2023-11-10T09:20:52.624Z,0.80
2023-11-10T09:23:19.267Z,0.65
2023-11-10T09:25:45.923Z,0.90
2023-11-10T09:28:12.621Z,0.70
2023-11-10T09:30:39.261Z,0.80
2023-11-10T09:33:05.909Z,0.65
2023-11-10T09:35:32.506Z,0.70
2023-11-10T09:37:59.160Z,0.73
2023-11-10T09:40:25.737Z,0.88
2023-11-10T09:42:54.696Z,0.90
2023-11-10T09:45:23.363Z,0.90
2023-11-10T09:47:51.873Z,0.90
2023-11-10T09:50:18.594Z,1.00
2023-11-10T09:52:46.075Z,0.60
2023-11-10T09:55:12.672Z,0.93
2023-11-10T09:57:39.326Z,0.60
2023-11-10T10:00:06.517Z,0.80
2023-11-10T10:02:36.052Z,0.80
2023-11-10T10:05:04.243Z,0.90
2023-11-10T10:07:30.823Z,1.10
2023-11-10T10:09:57.521Z,0.93
2023-11-10T10:12:24.099Z,0.70
2023-11-10T10:14:54.614Z,0.90
2023-11-10T10:17:30.322Z,0.73
2023-11-10T10:20:07.183Z,0.95
2023-11-10T10:22:33.950Z,0.68
2023-11-10T10:25:00.686Z,0.98
2023-11-10T10:27:27.340Z,1.15
2023-11-10T10:29:53.929Z,0.98
2023-11-10T10:32:20.536Z,0.80
2023-11-10T10:34:47.198Z,1.17
2023-11-10T10:37:13.768Z,1.10
2023-11-10T10:39:41.172Z,1.00
2023-11-10T10:42:09.453Z,1.42
2023-11-10T10:44:36.063Z,1.30
2023-11-10T10:47:02.793Z,1.35
2023-11-10T10:49:29.394Z,1.10
2023-11-10T10:51:56.204Z,1.10
2023-11-10T10:54:22.846Z,1.30
2023-11-10T10:56:49.435Z,1.10
2023-11-10T10:59:16.624Z,1.40
2023-11-10T11:01:44.259Z,1.27
2023-11-10T11:04:26.062Z,1.13
2023-11-10T11:07:01.542Z,1.33
2023-11-10T11:09:55.831Z,1.20
2023-11-10T11:12:47.342Z,1.10
2023-11-10T11:15:23.501Z,1.08
2023-11-10T11:18:14.744Z,1.10
2023-11-10T11:20:41.350Z,1.55
2023-11-10T11:23:08.827Z,1.23
2023-11-10T11:25:37.132Z,1.30
2023-11-10T11:28:03.795Z,0.82
2023-11-10T11:30:37.456Z,1.35
2023-11-10T11:33:10.620Z,1.30
2023-11-10T11:35:46.670Z,0.68
2023-11-10T11:38:28.932Z,1.17
2023-11-10T11:40:58.613Z,1.00
2023-11-10T11:43:25.309Z,1.20
2023-11-10T11:45:56.010Z,1.13
2023-11-10T11:48:22.611Z,1.02
2023-11-10T11:50:52.369Z,1.02
2023-11-10T11:55:54.591Z,0.90
2023-11-10T11:58:21.272Z,1.30
2023-11-10T12:00:47.905Z,1.40
2023-11-10T12:03:14.965Z,1.20
2023-11-10T12:05:42.144Z,1.20
2023-11-10T12:08:09.050Z,1.42
2023-11-10T12:10:35.624Z,1.30
2023-11-10T12:13:02.229Z,1.30
2023-11-10T12:15:28.932Z,1.23
2023-11-10T12:17:55.621Z,1.50
2023-11-10T12:20:25.175Z,1.50
2023-11-10T12:22:55.261Z,1.40
2023-11-10T12:25:22.248Z,1.80
2023-11-10T12:27:48.955Z,1.30
2023-11-10T12:30:15.700Z,1.67
2023-11-10T12:32:42.382Z,1.27
2023-11-10T12:35:09.814Z,1.42
2023-11-10T12:37:39.609Z,1.70
2023-11-10T12:42:36.885Z,1.40
2023-11-10T12:45:08.744Z,1.63
2023-11-10T12:47:35.319Z,1.23
2023-11-10T12:50:02.504Z,1.40
2023-11-10T12:52:29.150Z,1.27
2023-11-10T12:54:55.817Z,1.60
2023-11-10T12:57:22.441Z,1.30
2023-11-10T12:59:49.083Z,1.67
2023-11-10T13:02:15.663Z,1.52
2023-11-10T13:04:42.300Z,1.52
2023-11-10T13:07:09.036Z,1.50
2023-11-10T13:09:35.676Z,1.58
2023-11-10T13:12:02.329Z,1.63
2023-11-10T13:14:28.918Z,1.63
2023-11-10T13:16:55.575Z,1.48
2023-11-10T13:19:22.168Z,1.17
2023-11-10T13:21:48.811Z,1.20
2023-11-10T13:24:15.354Z,1.33
2023-11-10T13:26:41.981Z,1.17
2023-11-10T13:29:08.557Z,1.30
2023-11-10T13:31:35.234Z,1.50
2023-11-10T13:34:01.922Z,1.52
2023-11-10T13:36:28.535Z,1.38
2023-11-10T13:38:55.159Z,1.50
2023-11-10T13:41:27.663Z,1.70
2023-11-10T13:43:56.873Z,1.30
2023-11-10T13:46:25.986Z,1.38
2023-11-10T13:48:53.140Z,1.23
2023-11-10T13:51:19.733Z,1.27
2023-11-10T13:53:46.306Z,1.20
2023-11-10T13:56:12.906Z,1.65
2023-11-10T13:58:39.525Z,1.70
2023-11-10T14:01:06.246Z,1.73
2023-11-10T14:03:39.398Z,1.77
2023-11-10T14:06:06.402Z,1.75
2023-11-10T14:08:32.945Z,1.55
2023-11-10T14:10:59.512Z,1.35
2023-11-10T14:13:26.041Z,1.27
2023-11-10T14:15:52.634Z,1.20
2023-11-10T14:18:19.196Z,1.52
2023-11-10T14:20:45.794Z,1.40
2023-11-10T14:23:12.368Z,1.67
2023-11-10T14:25:38.925Z,1.30
2023-11-10T14:28:05.560Z,1.50
2023-11-10T14:30:32.210Z,1.58
2023-11-10T14:32:58.832Z,1.70
2023-11-10T14:35:25.387Z,1.40
2023-11-10T14:37:51.969Z,1.63
2023-11-10T14:40:19.363Z,1.77
2023-11-10T14:42:46.116Z,1.67
2023-11-10T14:45:12.700Z,1.55
2023-11-10T14:47:39.956Z,1.40
2023-11-10T14:50:06.691Z,1.80
2023-11-10T14:52:33.249Z,1.38
2023-11-10T14:54:59.854Z,1.40
2023-11-10T14:57:26.462Z,1.50
2023-11-10T14:59:53.007Z,1.58
2023-11-10T15:02:19.576Z,1.33
2023-11-10T15:04:46.255Z,1.25
2023-11-10T15:07:13.281Z,1.27
2023-11-10T15:09:40.025Z,1.40
2023-11-10T15:12:10.129Z,1.42
2023-11-10T15:14:37.344Z,1.52
2023-11-10T15:17:07.276Z,1.40
2023-11-10T15:19:36.864Z,1.30
2023-11-10T15:22:03.676Z,1.67
2023-11-10T15:24:30.349Z,1.48
2023-11-10T15:26:56.929Z,1.83
2023-11-10T15:29:23.539Z,1.25
2023-11-10T15:31:50.310Z,1.65
2023-11-10T15:34:18.384Z,1.50
2023-11-10T15:36:44.971Z,1.70
2023-11-10T15:39:15.914Z,1.48
2023-11-10T15:41:43.151Z,1.42
2023-11-10T15:44:09.718Z,2.33
2023-11-10T15:46:36.420Z,3.53
2023-11-10T15:49:03.096Z,3.15
2023-11-10T15:51:33.917Z,2.05
2023-11-10T15:54:06.214Z,1.70
2023-11-10T15:56:32.807Z,2.03
2023-11-10T15:58:59.409Z,1.95
2023-11-10T16:01:26.035Z,1.83
2023-11-10T16:03:52.867Z,2.00
2023-11-10T16:06:19.506Z,1.50
2023-11-10T16:08:46.140Z,1.67
2023-11-10T16:11:12.681Z,1.38
2023-11-10T16:13:39.277Z,1.70
2023-11-10T16:16:08.919Z,1.77
2023-11-10T16:18:35.710Z,1.10
2023-11-10T16:21:02.325Z,1.52
2023-11-10T16:23:28.893Z,1.45
2023-11-10T16:25:55.460Z,1.05
2023-11-10T16:28:22.056Z,1.13
2023-11-10T16:30:48.764Z,1.65
2023-11-10T16:33:15.425Z,1.60
2023-11-10T16:35:41.949Z,1.73
2023-11-10T16:38:08.431Z,1.70
2023-11-10T16:40:34.969Z,1.42
2023-11-10T16:43:01.516Z,1.38
2023-11-10T16:45:28.093Z,1.30
2023-11-10T16:47:54.675Z,1.23
2023-11-10T16:50:21.315Z,0.90
2023-11-10T16:52:47.858Z,1.20
2023-11-10T16:55:14.559Z,1.10
2023-11-10T16:57:41.203Z,0.90
2023-11-10T17:00:08.253Z,1.20
2023-11-10T17:02:42.407Z,1.15
2023-11-10T17:05:11.917Z,1.50
2023-11-10T17:07:39.096Z,1.55
2023-11-10T17:10:07.188Z,1.40
2023-11-10T17:12:33.805Z,1.13
2023-11-10T17:15:00.320Z,1.00
2023-11-10T17:17:26.954Z,1.10
2023-11-10T17:19:53.486Z,1.35
2023-11-10T17:22:20.025Z,1.20
2023-11-10T17:24:46.632Z,1.30
2023-11-10T17:27:13.287Z,1.15
2023-11-10T17:29:39.850Z,1.33
2023-11-10T17:32:07.078Z,0.98
2023-11-10T17:34:33.834Z,1.10
2023-11-10T17:37:00.365Z,1.23
2023-11-10T17:39:27.204Z,0.90
2023-11-10T17:41:53.689Z,1.48
2023-11-10T17:44:20.332Z,1.13
2023-11-10T17:46:46.966Z,1.52
2023-11-10T17:49:13.681Z,1.25
2023-11-10T17:51:40.313Z,1.40
2023-11-10T17:54:07.101Z,1.10
2023-11-10T17:56:33.698Z,1.25
2023-11-10T17:59:00.240Z,1.17
2023-11-10T18:01:26.844Z,0.70
2023-11-10T18:03:53.539Z,0.68
2023-11-10T18:06:20.171Z,1.10
2023-11-10T18:08:47.107Z,1.70
2023-11-10T18:11:22.838Z,0.82
2023-11-10T18:16:15.857Z,0.93
2023-11-10T18:18:42.487Z,1.38
2023-11-10T18:21:09.024Z,1.10
2023-11-10T18:23:35.527Z,0.80
2023-11-10T18:26:02.036Z,1.00
2023-11-10T18:28:28.610Z,0.77
2023-11-10T18:30:55.377Z,0.73
2023-11-10T18:33:22.001Z,1.00
2023-11-10T18:35:48.675Z,1.10
2023-11-10T18:38:15.212Z,0.88
2023-11-10T18:40:41.773Z,0.88
2023-11-10T18:43:08.381Z,0.90
2023-11-10T18:45:34.983Z,0.90
2023-11-10T18:48:01.536Z,0.82
2023-11-10T18:50:28.203Z,1.15
2023-11-10T18:52:57.321Z,0.90
2023-11-10T18:55:23.907Z,0.70
2023-11-10T18:57:50.759Z,1.00
2023-11-10T19:00:17.735Z,0.98
2023-11-10T19:02:44.385Z,0.80
2023-11-10T19:05:11.072Z,0.68
2023-11-10T19:07:37.642Z,0.80
2023-11-10T19:10:04.269Z,1.08
2023-11-10T19:12:30.815Z,0.95
2023-11-10T19:14:57.479Z,1.00
2023-11-10T19:17:24.057Z,0.80
2023-11-10T19:19:50.675Z,1.23
2023-11-10T19:22:17.286Z,0.85
2023-11-10T19:24:43.927Z,0.82
2023-11-10T19:27:10.539Z,0.80
2023-11-10T19:29:37.102Z,0.90
2023-11-10T19:32:03.738Z,0.60
2023-11-10T19:34:30.446Z,1.02
2023-11-10T19:36:57.056Z,0.55
2023-11-10T19:39:24.610Z,0.77
2023-11-10T19:41:51.521Z,0.98
2023-11-10T19:44:18.007Z,0.80
2023-11-10T19:46:44.584Z,0.93
2023-11-10T19:49:11.548Z,0.85
2023-11-10T19:56:46.519Z,1.08
2023-11-10T20:01:42.998Z,0.95
2023-11-10T20:04:09.580Z,0.80
2023-11-10T20:06:36.240Z,0.68
2023-11-10T20:09:02.866Z,0.93
2023-11-10T20:11:29.451Z,0.80
2023-11-10T20:13:55.965Z,0.93
2023-11-10T20:16:22.568Z,0.80
2023-11-10T20:18:49.131Z,0.70
2023-11-10T20:21:18.950Z,0.77
2023-11-10T20:23:45.486Z,0.82
2023-11-10T20:26:12.073Z,0.60
2023-11-10T20:28:38.872Z,0.60
2023-11-10T20:31:05.546Z,0.88
2023-11-10T20:33:33.654Z,1.00
2023-11-10T20:36:00.335Z,0.70
2023-11-10T20:38:26.865Z,0.77
2023-11-10T20:40:53.455Z,0.55
2023-11-10T20:43:20.480Z,1.05
2023-11-10T20:45:47.350Z,0.80
2023-11-10T20:48:14.079Z,0.80
2023-11-10T20:50:40.707Z,0.90
2023-11-10T20:53:07.759Z,0.90
2023-11-10T20:55:35.237Z,0.98
2023-11-10T20:58:01.809Z,0.60
2023-11-10T21:00:28.447Z,0.93
2023-11-10T21:02:55.280Z,0.77
2023-11-10T21:05:21.999Z,0.95
2023-11-10T21:07:48.522Z,0.80
2023-11-10T21:10:15.106Z,1.00
2023-11-10T21:12:42.767Z,1.10
2023-11-10T21:15:10.418Z,1.02
2023-11-10T21:17:37.067Z,0.95
2023-11-10T21:20:04.046Z,1.10
2023-11-10T21:22:30.597Z,0.88
2023-11-10T21:24:57.181Z,1.30
2023-11-10T21:27:23.809Z,0.80
2023-11-10T21:29:50.395Z,0.90
2023-11-10T21:32:17.228Z,1.30
2023-11-10T21:34:44.381Z,0.90
2023-11-10T21:37:10.924Z,0.63
2023-11-10T21:39:37.652Z,1.00
2023-11-10T21:42:04.673Z,1.10
2023-11-10T21:44:31.316Z,0.98
2023-11-10T21:46:57.938Z,0.95
2023-11-10T21:49:24.908Z,1.17
2023-11-10T21:51:52.007Z,1.00
2023-11-10T21:54:18.646Z,2.25
2023-11-10T21:56:45.240Z,1.23
2023-11-10T21:59:11.898Z,1.02
2023-11-10T22:01:38.491Z,1.17
2023-11-10T22:04:05.174Z,1.00
2023-11-10T22:06:31.847Z,1.40
2023-11-10T22:08:58.420Z,0.98
2023-11-10T22:11:25.063Z,1.23
2023-11-10T22:13:51.604Z,1.15
2023-11-10T22:16:18.193Z,1.30
2023-11-10T22:18:45.368Z,1.10
2023-11-10T22:21:11.999Z,1.40
2023-11-10T22:23:38.627Z,1.30
2023-11-10T22:26:05.154Z,1.15
2023-11-10T22:28:34.485Z,1.27
2023-11-10T22:31:01.189Z,1.48
2023-11-10T22:33:27.918Z,1.08
2023-11-10T22:35:54.566Z,1.17
2023-11-10T22:38:21.164Z,1.33
2023-11-10T22:40:47.755Z,1.10
2023-11-10T22:43:14.326Z,0.95
2023-11-10T22:45:41.005Z,2.03
2023-11-10T22:48:07.777Z,1.63
2023-11-10T22:50:34.427Z,1.13
2023-11-10T22:53:00.996Z,1.50
2023-11-10T22:55:27.547Z,1.40
2023-11-10T22:57:54.140Z,1.38
2023-11-10T23:00:20.758Z,1.52
2023-11-10T23:02:47.442Z,1.58
2023-11-10T23:05:14.057Z,1.30
2023-11-10T23:07:40.656Z,1.70
2023-11-10T23:10:07.680Z,1.70
2023-11-10T23:12:34.275Z,1.55
2023-11-10T23:15:00.930Z,1.85
2023-11-10T23:17:27.560Z,1.70
2023-11-10T23:19:54.194Z,2.03
2023-11-10T23:22:20.775Z,2.30
2023-11-10T23:24:47.342Z,1.58
2023-11-10T23:27:14.149Z,2.00
2023-11-10T23:29:41.879Z,2.38
2023-11-10T23:32:08.489Z,2.10
2023-11-10T23:34:35.077Z,2.28
2023-11-10T23:37:01.625Z,2.25
2023-11-10T23:39:28.208Z,2.10
2023-11-10T23:41:54.794Z,2.28
2023-11-10T23:44:21.432Z,2.22
2023-11-10T23:46:48.058Z,2.25
2023-11-10T23:49:14.758Z,2.47
2023-11-10T23:51:41.420Z,2.50
2023-11-10T23:54:08.118Z,2.30
2023-11-10T23:56:34.742Z,2.50
2023-11-10T23:59:01.297Z,2.33
